createdAt,value
2018-04-14T00:00:31.472Z,11.43
2018-04-14T00:01:31.660Z,11.29
2018-04-14T00:02:31.829Z,11.19
2018-04-14T00:03:31.995Z,11.25
2018-04-14T00:04:32.179Z,11.22
2018-04-14T00:05:32.353Z,11.10
2018-04-14T00:06:32.537Z,11.08
2018-04-14T00:07:32.722Z,11.15
2018-04-14T00:08:32.900Z,11.17
2018-04-14T00:09:33.080Z,11.27
2018-04-14T00:10:33.261Z,11.19
2018-04-14T00:11:33.445Z,11.23
2018-04-14T00:12:33.625Z,11.26
2018-04-14T00:13:33.800Z,11.30
2018-04-14T00:14:33.984Z,11.36
2018-04-14T00:15:34.168Z,11.30
2018-04-14T00:16:34.351Z,11.47
2018-04-14T00:17:34.534Z,11.40
2018-04-14T00:18:34.710Z,11.44
2018-04-14T00:20:35.057Z,11.41
2018-04-14T00:21:35.243Z,11.50
2018-04-14T00:22:35.413Z,11.54
2018-04-14T00:23:35.591Z,11.57
2018-04-14T00:24:35.769Z,11.51
2018-04-14T00:25:35.944Z,11.63
2018-04-14T00:26:36.106Z,11.59
2018-04-14T00:27:36.287Z,11.62
2018-04-14T00:28:36.464Z,11.73
2018-04-14T00:29:37.112Z,11.70
2018-04-14T00:30:36.806Z,11.63
2018-04-14T00:31:36.984Z,11.60
2018-04-14T00:33:37.335Z,11.57
2018-04-14T00:34:37.515Z,11.59
2018-04-14T00:35:37.683Z,11.70
2018-04-14T00:36:37.861Z,11.66
2018-04-14T00:37:38.060Z,11.57
2018-04-14T00:38:38.213Z,11.41
2018-04-14T00:39:38.449Z,11.43
2018-04-14T00:40:38.571Z,11.45
2018-04-14T00:41:38.739Z,11.52
2018-04-14T00:42:38.964Z,11.45
2018-04-14T00:43:39.102Z,11.47
2018-04-14T00:44:39.279Z,11.45
2018-04-14T00:45:39.457Z,11.48
2018-04-14T00:46:39.637Z,11.43
2018-04-14T00:47:39.823Z,11.55
2018-04-14T00:48:40.000Z,11.54
2018-04-14T00:49:40.182Z,11.63
2018-04-14T00:50:40.368Z,11.52
2018-04-14T00:51:40.536Z,11.73
2018-04-14T00:52:40.729Z,11.54
2018-04-14T00:53:40.878Z,11.59
2018-04-14T00:54:41.046Z,11.60
2018-04-14T00:55:41.228Z,11.63
2018-04-14T00:56:41.414Z,11.68
2018-04-14T00:57:41.600Z,11.69
2018-04-14T00:58:41.780Z,11.69
2018-04-14T00:59:41.961Z,11.73
2018-04-14T01:00:42.148Z,11.68
2018-04-14T01:01:42.319Z,11.70
2018-04-14T01:02:42.488Z,11.80
2018-04-14T01:03:42.656Z,11.72
2018-04-14T01:04:42.838Z,11.70
2018-04-14T01:05:43.019Z,11.65
2018-04-14T01:06:43.551Z,11.72
2018-04-14T01:07:43.371Z,11.70
2018-04-14T01:08:43.548Z,11.70
2018-04-14T01:09:43.727Z,11.68
2018-04-14T01:10:43.913Z,11.66
2018-04-14T01:11:44.095Z,11.69
2018-04-14T01:12:44.269Z,11.66
2018-04-14T01:13:44.446Z,11.54
2018-04-14T01:14:44.627Z,11.51
2018-04-14T01:15:44.803Z,11.68
2018-04-14T01:16:45.264Z,11.68
2018-04-14T01:17:45.161Z,11.75
2018-04-14T01:18:45.335Z,11.62
2018-04-14T01:19:45.517Z,11.62
2018-04-14T01:20:45.697Z,11.41
2018-04-14T01:21:45.878Z,11.43
2018-04-14T01:22:46.112Z,11.45
2018-04-14T01:23:46.245Z,11.51
2018-04-14T01:24:46.422Z,11.37
2018-04-14T01:25:46.612Z,11.32
2018-04-14T01:26:46.807Z,11.41
2018-04-14T01:27:46.968Z,11.40
2018-04-14T01:28:47.147Z,11.50
2018-04-14T01:29:47.333Z,11.52
2018-04-14T01:30:47.510Z,11.51
2018-04-14T01:31:47.687Z,11.47
2018-04-14T01:32:47.864Z,11.57
2018-04-14T01:33:48.062Z,11.55
2018-04-14T01:34:48.245Z,11.62
2018-04-14T01:35:48.426Z,11.63
2018-04-14T01:36:48.609Z,11.69
2018-04-14T01:37:48.795Z,11.86
2018-04-14T01:38:48.969Z,11.91
2018-04-14T01:39:49.155Z,11.90
2018-04-14T01:40:49.331Z,11.95
2018-04-14T01:41:49.515Z,11.88
2018-04-14T01:42:49.698Z,11.90
2018-04-14T01:43:49.873Z,12.06
2018-04-14T01:44:50.056Z,12.03
2018-04-14T01:45:50.236Z,12.10
2018-04-14T01:46:50.408Z,12.03
2018-04-14T01:47:50.587Z,12.06
2018-04-14T01:48:50.775Z,11.95
2018-04-14T01:49:50.953Z,12.03
2018-04-14T01:50:51.138Z,12.04
2018-04-14T01:51:51.314Z,12.06
2018-04-14T01:52:51.495Z,11.94
2018-04-14T01:53:51.684Z,11.91
2018-04-14T01:54:51.867Z,12.06
2018-04-14T01:55:52.044Z,12.02
2018-04-14T01:56:52.234Z,12.00
2018-04-14T01:57:52.375Z,11.84
2018-04-14T01:58:52.557Z,11.90
2018-04-14T01:59:52.727Z,11.75
2018-04-14T02:00:53.162Z,11.80
2018-04-14T02:01:53.088Z,11.77
2018-04-14T02:02:53.268Z,11.72
2018-04-14T02:03:53.450Z,11.65
2018-04-14T02:04:53.632Z,11.69
2018-04-14T02:05:53.815Z,11.63
2018-04-14T02:06:53.990Z,11.45
2018-04-14T02:07:54.173Z,11.37
2018-04-14T02:08:54.360Z,11.43
2018-04-14T02:09:54.525Z,11.44
2018-04-14T02:10:54.705Z,11.41
2018-04-14T02:11:54.884Z,11.47
2018-04-14T02:12:55.065Z,11.43
2018-04-14T02:13:55.239Z,11.30
2018-04-14T02:14:55.425Z,11.29
2018-04-14T02:15:55.599Z,11.27
2018-04-14T02:16:55.782Z,11.10
2018-04-14T02:17:55.957Z,11.12
2018-04-14T02:18:56.140Z,10.97
2018-04-14T02:19:56.324Z,10.92
2018-04-14T02:20:56.502Z,11.02
2018-04-14T02:21:56.675Z,10.97
2018-04-14T02:22:56.856Z,10.92
2018-04-14T02:23:57.041Z,10.89
2018-04-14T02:24:57.209Z,10.96
2018-04-14T02:25:57.391Z,10.94
2018-04-14T02:26:57.565Z,10.94
2018-04-14T02:27:57.748Z,11.00
2018-04-14T02:28:57.935Z,10.94
2018-04-14T02:29:58.094Z,10.99
2018-04-14T02:30:58.285Z,11.02
2018-04-14T02:31:58.434Z,11.05
2018-04-14T02:32:58.612Z,10.96
2018-04-14T02:33:58.792Z,11.00
2018-04-14T02:34:58.981Z,11.08
2018-04-14T02:35:59.156Z,11.10
2018-04-14T02:36:59.343Z,11.05
2018-04-14T02:37:59.527Z,10.94
2018-04-14T02:38:59.702Z,11.02
2018-04-14T02:39:59.883Z,11.07
2018-04-14T02:41:00.061Z,11.10
2018-04-14T02:42:00.230Z,11.22
2018-04-14T02:43:00.398Z,11.10
2018-04-14T02:44:00.579Z,10.97
2018-04-14T02:45:00.770Z,10.97
2018-04-14T02:46:00.944Z,11.07
2018-04-14T02:47:01.128Z,11.05
2018-04-14T02:48:01.305Z,10.94
2018-04-14T02:49:01.489Z,10.94
2018-04-14T02:50:01.658Z,10.94
2018-04-14T02:51:01.835Z,10.93
2018-04-14T02:52:02.018Z,11.04
2018-04-14T02:53:02.198Z,10.97
2018-04-14T02:54:02.379Z,10.96
2018-04-14T02:55:02.813Z,10.97
2018-04-14T02:56:02.742Z,11.00
2018-04-14T02:57:02.929Z,10.86
2018-04-14T02:58:03.105Z,10.94
2018-04-14T02:59:03.284Z,10.99
2018-04-14T03:00:03.476Z,10.89
2018-04-14T03:01:03.647Z,10.87
2018-04-14T03:02:03.828Z,10.86
2018-04-14T03:03:04.008Z,10.76
2018-04-14T03:04:04.189Z,10.76
2018-04-14T03:05:04.366Z,10.86
2018-04-14T03:06:04.551Z,10.81
2018-04-14T03:07:04.729Z,10.87
2018-04-14T03:08:04.907Z,10.90
2018-04-14T03:09:05.088Z,10.86
2018-04-14T03:10:05.270Z,10.87
2018-04-14T03:11:05.449Z,10.94
2018-04-14T03:12:05.635Z,10.81
2018-04-14T03:13:06.329Z,10.86
2018-04-14T03:14:06.000Z,10.89
2018-04-14T03:15:06.182Z,10.79
2018-04-14T03:16:06.361Z,10.79
2018-04-14T03:17:06.546Z,10.90
2018-04-14T03:18:06.727Z,10.79
2018-04-14T03:19:06.908Z,10.79
2018-04-14T03:20:07.086Z,10.76
2018-04-14T03:21:07.270Z,10.82
2018-04-14T03:22:07.447Z,10.69
2018-04-14T03:23:07.626Z,10.60
2018-04-14T03:24:07.809Z,10.60
2018-04-14T03:25:07.997Z,10.60
2018-04-14T03:26:08.171Z,10.48
2018-04-14T03:27:08.364Z,10.59
2018-04-14T03:28:08.534Z,10.59
2018-04-14T03:29:08.718Z,10.51
2018-04-14T03:30:08.894Z,10.48
2018-04-14T03:31:09.083Z,10.56
2018-04-14T03:32:09.481Z,10.54
2018-04-14T03:33:09.428Z,10.59
2018-04-14T03:34:09.607Z,10.53
2018-04-14T03:35:09.804Z,10.48
2018-04-14T03:36:09.959Z,10.31
2018-04-14T03:37:10.136Z,10.38
2018-04-14T03:38:10.306Z,10.28
2018-04-14T03:39:11.319Z,10.25
2018-04-14T03:40:10.624Z,10.28
2018-04-14T03:41:10.803Z,10.22
2018-04-14T03:42:11.000Z,10.30
2018-04-14T03:43:11.169Z,10.35
2018-04-14T03:44:11.344Z,10.23
2018-04-14T03:45:11.525Z,10.35
2018-04-14T03:46:11.706Z,10.33
2018-04-14T03:47:11.884Z,10.26
2018-04-14T03:48:12.064Z,10.22
2018-04-14T03:49:12.243Z,10.34
2018-04-14T03:50:12.424Z,10.19
2018-04-14T03:51:12.599Z,9.76
2018-04-14T03:52:12.781Z,9.64
2018-04-14T03:53:12.964Z,9.59
2018-04-14T03:54:13.163Z,9.65
2018-04-14T03:55:13.350Z,9.64
2018-04-14T03:56:13.772Z,9.72
2018-04-14T03:57:13.711Z,9.69
2018-04-14T03:58:13.889Z,9.68
2018-04-14T03:59:14.064Z,9.56
2018-04-14T04:00:14.251Z,9.77
2018-04-14T04:01:14.425Z,9.72
2018-04-14T04:02:14.599Z,9.59
2018-04-14T04:03:14.778Z,9.56
2018-04-14T04:04:14.965Z,9.50
2018-04-14T04:05:15.140Z,9.51
2018-04-14T04:06:15.561Z,9.54
2018-04-14T04:07:15.501Z,9.68
2018-04-14T04:08:15.676Z,9.66
2018-04-14T04:09:15.860Z,9.62
2018-04-14T04:10:16.035Z,9.62
2018-04-14T04:11:16.213Z,9.65
2018-04-14T04:12:16.395Z,9.46
2018-04-14T04:13:16.574Z,9.44
2018-04-14T04:14:16.759Z,9.55
2018-04-14T04:15:16.939Z,9.68
2018-04-14T04:17:17.295Z,9.69
2018-04-14T04:18:17.475Z,9.77
2018-04-14T04:19:17.649Z,9.80
2018-04-14T04:20:17.827Z,9.79
2018-04-14T04:21:18.012Z,9.72
2018-04-14T04:22:18.193Z,9.61
2018-04-14T04:23:18.372Z,9.72
2018-04-14T04:24:18.548Z,9.87
2018-04-14T04:25:18.728Z,9.84
2018-04-14T04:27:19.086Z,10.07
2018-04-14T04:28:19.270Z,10.02
2018-04-14T04:29:19.442Z,10.02
2018-04-14T04:30:19.620Z,9.97
2018-04-14T04:31:19.803Z,9.77
2018-04-14T04:32:19.963Z,9.92
2018-04-14T04:33:20.145Z,9.86
2018-04-14T04:34:20.321Z,9.92
2018-04-14T04:35:20.496Z,9.92
2018-04-14T04:36:20.684Z,9.92
2018-04-14T04:37:20.863Z,9.77
2018-04-14T04:38:21.043Z,9.83
2018-04-14T04:39:21.236Z,9.87
2018-04-14T04:40:21.399Z,9.95
2018-04-14T04:41:21.578Z,9.97
2018-04-14T04:42:21.753Z,10.12
2018-04-14T04:43:21.940Z,10.16
2018-04-14T04:44:22.123Z,10.12
2018-04-14T04:45:22.308Z,10.19
2018-04-14T04:46:22.482Z,10.26
2018-04-14T04:47:22.660Z,10.23
2018-04-14T04:48:22.833Z,10.28
2018-04-14T04:49:23.001Z,10.25
2018-04-14T04:50:23.190Z,10.26
2018-04-14T04:51:23.355Z,10.31
2018-04-14T04:52:23.556Z,10.35
2018-04-14T04:53:23.736Z,10.49
2018-04-14T04:54:23.933Z,10.38
2018-04-14T04:55:24.116Z,10.38
2018-04-14T04:56:24.296Z,10.35
2018-04-14T04:57:24.478Z,10.41
2018-04-14T04:58:24.660Z,10.35
2018-04-14T04:59:24.839Z,10.46
2018-04-14T05:00:25.328Z,10.34
2018-04-14T05:01:25.199Z,10.40
2018-04-14T05:02:25.390Z,10.33
2018-04-14T05:03:25.572Z,10.22
2018-04-14T05:04:25.789Z,10.05
2018-04-14T05:05:25.925Z,10.17
2018-04-14T05:06:26.102Z,10.12
2018-04-14T05:07:26.282Z,10.07
2018-04-14T05:08:26.466Z,9.95
2018-04-14T05:09:26.651Z,10.01
2018-04-14T05:10:26.830Z,9.99
2018-04-14T05:11:27.013Z,9.95
2018-04-14T05:12:27.193Z,10.09
2018-04-14T05:13:27.371Z,10.05
2018-04-14T05:14:27.552Z,10.02
2018-04-14T05:15:27.730Z,10.16
2018-04-14T05:16:27.918Z,10.16
2018-04-14T05:17:28.095Z,10.15
2018-04-14T05:18:28.284Z,10.23
2018-04-14T05:19:28.449Z,10.13
2018-04-14T05:20:28.632Z,10.17
2018-04-14T05:21:28.814Z,10.16
2018-04-14T05:22:28.997Z,10.09
2018-04-14T05:23:29.168Z,10.20
2018-04-14T05:24:29.347Z,9.95
2018-04-14T05:25:29.538Z,9.83
2018-04-14T05:26:29.717Z,9.76
2018-04-14T05:27:29.889Z,9.89
2018-04-14T05:28:30.068Z,9.86
2018-04-14T05:29:30.251Z,9.87
2018-04-14T05:30:30.431Z,9.68
2018-04-14T05:31:30.629Z,9.72
2018-04-14T05:32:30.793Z,9.68
2018-04-14T05:33:30.969Z,9.73
2018-04-14T05:34:31.152Z,9.61
2018-04-14T05:35:31.329Z,9.54
2018-04-14T05:36:31.513Z,9.39
2018-04-14T05:37:31.708Z,9.26
2018-04-14T05:38:31.868Z,9.32
2018-04-14T05:39:32.050Z,9.32
2018-04-14T05:40:32.227Z,9.37
2018-04-14T05:41:32.406Z,9.32
2018-04-14T05:42:32.636Z,9.62
2018-04-14T05:43:32.760Z,9.89
2018-04-14T05:44:33.022Z,9.84
2018-04-14T05:45:33.113Z,9.91
2018-04-14T05:46:33.285Z,10.02
2018-04-14T05:47:33.455Z,10.35
2018-04-14T05:48:33.648Z,10.59
2018-04-14T05:49:33.813Z,10.53
2018-04-14T05:50:33.997Z,10.90
2018-04-14T05:51:34.189Z,10.67
2018-04-14T05:52:34.360Z,11.11
2018-04-14T05:53:34.545Z,11.50
2018-04-14T05:54:34.723Z,11.69
2018-04-14T05:55:34.903Z,11.72
2018-04-14T05:56:35.085Z,12.15
2018-04-14T05:57:35.264Z,12.40
2018-04-14T05:58:35.450Z,12.27
2018-04-14T05:59:35.616Z,12.40
2018-04-14T06:00:35.798Z,12.29
2018-04-14T06:01:35.979Z,12.62
2018-04-14T06:02:36.165Z,12.39
2018-04-14T06:03:36.346Z,12.45
2018-04-14T06:04:36.539Z,12.31
2018-04-14T06:05:36.719Z,12.60
2018-04-14T06:06:36.917Z,12.15
2018-04-14T06:07:37.080Z,12.06
2018-04-14T06:08:37.293Z,12.15
2018-04-14T06:09:37.473Z,12.47
2018-04-14T06:10:37.623Z,13.00
2018-04-14T06:11:37.811Z,12.97
2018-04-14T06:12:37.979Z,13.22
2018-04-14T06:13:38.182Z,13.22
2018-04-14T06:14:38.351Z,13.01
2018-04-14T06:15:38.537Z,13.16
2018-04-14T06:16:38.716Z,12.87
2018-04-14T06:17:38.904Z,12.90
2018-04-14T06:18:39.111Z,12.73
2018-04-14T06:19:39.303Z,12.68
2018-04-14T06:20:39.441Z,12.85
2018-04-14T06:21:39.622Z,13.01
2018-04-14T06:22:39.798Z,12.76
2018-04-14T06:23:39.978Z,12.62
2018-04-14T06:24:40.166Z,12.39
2018-04-14T06:25:40.358Z,12.61
2018-04-14T06:26:40.547Z,12.22
2018-04-14T06:27:40.731Z,12.50
2018-04-14T06:28:40.908Z,12.90
2018-04-14T06:29:41.068Z,13.42
2018-04-14T06:30:41.257Z,13.20
2018-04-14T06:31:41.428Z,13.37
2018-04-14T06:32:41.612Z,13.56
2018-04-14T06:33:41.791Z,13.62
2018-04-14T06:34:41.996Z,13.50
2018-04-14T06:35:42.168Z,13.83
2018-04-14T06:36:42.344Z,13.47
2018-04-14T06:37:42.527Z,13.52
2018-04-14T06:38:42.713Z,13.87
2018-04-14T06:39:42.888Z,13.75
2018-04-14T06:40:43.079Z,14.07
2018-04-14T06:41:43.265Z,13.57
2018-04-14T06:42:43.451Z,13.27
2018-04-14T06:43:43.638Z,12.55
2018-04-14T06:44:43.810Z,12.72
2018-04-14T06:45:43.994Z,12.60
2018-04-14T06:46:44.190Z,12.35
2018-04-14T06:47:44.361Z,12.24
2018-04-14T06:48:44.540Z,12.55
2018-04-14T06:49:44.731Z,12.72
2018-04-14T06:50:44.899Z,12.86
2018-04-14T06:51:45.079Z,13.19
2018-04-14T06:52:45.267Z,13.19
2018-04-14T06:53:45.446Z,13.74
2018-04-14T06:54:45.633Z,13.99
2018-04-14T06:55:45.820Z,14.22
2018-04-14T06:56:46.003Z,14.59
2018-04-14T06:57:46.177Z,15.14
2018-04-14T06:58:46.381Z,15.65
2018-04-14T06:59:46.555Z,15.67
2018-04-14T07:00:46.756Z,15.54
2018-04-14T07:01:46.963Z,16.05
2018-04-14T07:02:47.124Z,16.26
2018-04-14T07:03:47.309Z,16.75
2018-04-14T07:04:47.499Z,16.60
2018-04-14T07:05:47.690Z,16.87
2018-04-14T07:06:47.888Z,17.19
2018-04-14T07:07:48.068Z,17.41
2018-04-14T07:08:48.230Z,17.65
2018-04-14T07:09:48.413Z,17.79
2018-04-14T07:10:48.591Z,17.94
2018-04-14T07:11:48.781Z,18.03
2018-04-14T07:12:48.977Z,17.76
2018-04-14T07:13:49.166Z,16.89
2018-04-14T07:14:49.327Z,17.27
2018-04-14T07:15:49.498Z,17.46
2018-04-14T07:16:49.681Z,17.56
2018-04-14T07:17:49.856Z,17.67
2018-04-14T07:18:50.062Z,17.87
2018-04-14T07:19:50.222Z,18.16
2018-04-14T07:20:50.408Z,17.68
2018-04-14T07:21:50.589Z,17.39
2018-04-14T07:22:50.773Z,17.46
2018-04-14T07:23:50.957Z,17.63
2018-04-14T07:24:51.153Z,17.52
2018-04-14T07:25:51.343Z,17.94
2018-04-14T07:26:51.523Z,17.94
2018-04-14T07:27:51.713Z,17.95
2018-04-14T07:28:51.908Z,17.83
2018-04-14T07:29:52.090Z,18.00
2018-04-14T07:30:52.265Z,17.57
2018-04-14T07:31:52.453Z,17.36
2018-04-14T07:32:52.647Z,17.54
2018-04-14T07:33:52.844Z,17.52
2018-04-14T07:34:53.006Z,17.20
2018-04-14T07:35:55.821Z,17.46
2018-04-14T07:36:53.443Z,17.76
2018-04-14T07:37:54.314Z,18.15
2018-04-14T07:38:53.798Z,18.31
2018-04-14T07:39:53.998Z,17.97
2018-04-14T07:40:54.174Z,18.26
2018-04-14T07:41:54.359Z,18.20
2018-04-14T07:42:54.529Z,18.28
2018-04-14T07:43:54.772Z,18.62
2018-04-14T07:44:55.165Z,18.52
2018-04-14T07:45:55.107Z,18.65
2018-04-14T07:46:55.296Z,18.47
2018-04-14T07:47:55.488Z,17.95
2018-04-14T07:48:55.658Z,18.08
2018-04-14T07:49:55.819Z,17.71
2018-04-14T07:50:56.003Z,17.24
2018-04-14T07:51:56.192Z,17.45
2018-04-14T07:52:56.356Z,17.59
2018-04-14T07:53:56.540Z,17.72
2018-04-14T07:54:56.725Z,18.08
2018-04-14T07:55:56.887Z,17.64
2018-04-14T07:56:57.067Z,17.54
2018-04-14T07:57:57.272Z,17.52
2018-04-14T07:58:57.402Z,17.38
2018-04-14T07:59:57.575Z,17.31
2018-04-14T08:00:57.756Z,17.76
2018-04-14T08:01:57.955Z,17.82
2018-04-14T08:02:58.186Z,17.92
2018-04-14T08:03:58.339Z,18.16
2018-04-14T08:04:58.482Z,18.68
2018-04-14T08:05:58.646Z,18.35
2018-04-14T08:06:58.814Z,18.20
2018-04-14T08:07:59.040Z,18.40
2018-04-14T08:08:59.191Z,18.18
2018-04-14T08:09:59.366Z,17.86
2018-04-14T08:10:59.576Z,17.85
2018-04-14T08:11:59.722Z,17.44
2018-04-14T08:12:59.891Z,18.01
2018-04-14T08:14:00.074Z,17.86
2018-04-14T08:15:00.260Z,18.22
2018-04-14T08:16:00.453Z,18.25
2018-04-14T08:17:00.637Z,18.38
2018-04-14T08:18:00.799Z,18.11
2018-04-14T08:19:01.001Z,18.77
2018-04-14T08:20:01.168Z,18.68
2018-04-14T08:21:01.360Z,19.08
2018-04-14T08:22:01.512Z,18.63
2018-04-14T08:23:01.693Z,19.11
2018-04-14T08:24:01.900Z,19.40
2018-04-14T08:25:02.101Z,19.16
2018-04-14T08:26:02.270Z,19.09
2018-04-14T08:27:02.450Z,18.92
2018-04-14T08:28:02.617Z,18.90
2018-04-14T08:29:02.830Z,18.89
2018-04-14T08:30:03.071Z,18.56
2018-04-14T08:31:03.155Z,19.30
2018-04-14T08:33:03.542Z,20.07
2018-04-14T08:34:03.703Z,19.73
2018-04-14T08:35:03.912Z,20.04
2018-04-14T08:36:04.093Z,19.89
2018-04-14T08:37:04.297Z,19.36
2018-04-14T08:38:04.522Z,19.45
2018-04-14T08:39:04.662Z,18.75
2018-04-14T08:40:04.832Z,19.12
2018-04-14T08:41:05.049Z,19.45
2018-04-14T08:42:05.224Z,19.59
2018-04-14T08:43:05.388Z,19.88
2018-04-14T08:44:05.560Z,19.91
2018-04-14T08:45:05.852Z,19.89
2018-04-14T08:46:05.945Z,20.06
2018-04-14T08:47:06.118Z,20.24
2018-04-14T08:48:06.344Z,20.07
2018-04-14T08:49:06.457Z,19.24
2018-04-14T08:50:06.721Z,18.63
2018-04-14T08:51:07.423Z,18.52
2018-04-14T08:52:07.045Z,19.11
2018-04-14T08:53:07.214Z,19.52
2018-04-14T08:54:07.334Z,18.19
2018-04-14T08:55:07.514Z,17.72
2018-04-14T08:56:07.692Z,17.98
2018-04-14T08:57:07.855Z,18.23
2018-04-14T08:58:08.084Z,18.53
2018-04-14T08:59:10.927Z,18.99
2018-04-14T09:00:08.472Z,18.66
2018-04-14T09:01:08.649Z,18.98
2018-04-14T09:02:08.863Z,19.52
2018-04-14T09:03:09.370Z,19.73
2018-04-14T09:04:09.260Z,19.81
2018-04-14T09:05:09.350Z,19.99
2018-04-14T09:06:09.527Z,20.02
2018-04-14T09:07:09.697Z,19.76
2018-04-14T09:08:09.901Z,19.54
2018-04-14T09:09:10.127Z,19.66
2018-04-14T09:10:10.245Z,19.81
2018-04-14T09:11:10.411Z,18.83
2018-04-14T09:12:10.599Z,18.89
2018-04-14T09:13:11.017Z,19.47
2018-04-14T09:14:10.917Z,18.90
2018-04-14T09:15:11.148Z,19.51
2018-04-14T09:16:11.372Z,19.84
2018-04-14T09:17:11.466Z,20.25
2018-04-14T09:18:11.653Z,21.00
2018-04-14T09:19:11.904Z,21.07
2018-04-14T09:20:12.084Z,21.05
2018-04-14T09:21:12.219Z,21.06
2018-04-14T09:22:12.425Z,21.18
2018-04-14T09:23:12.584Z,20.78
2018-04-14T09:24:12.782Z,20.63
2018-04-14T09:25:12.947Z,20.21
2018-04-14T09:26:13.131Z,19.79
2018-04-14T09:27:13.318Z,19.55
2018-04-14T09:28:13.474Z,19.79
2018-04-14T09:29:13.659Z,19.79
2018-04-14T09:30:13.837Z,19.94
2018-04-14T09:31:14.009Z,20.04
2018-04-14T09:32:14.224Z,19.69
2018-04-14T09:33:14.387Z,19.79
2018-04-14T09:34:14.553Z,19.96
2018-04-14T09:35:14.706Z,20.09
2018-04-14T09:36:14.925Z,19.94
2018-04-14T09:37:15.113Z,20.11
2018-04-14T09:38:15.232Z,19.81
2018-04-14T09:39:15.421Z,19.95
2018-04-14T09:40:15.830Z,19.96
2018-04-14T09:41:15.764Z,19.86
2018-04-14T09:42:15.951Z,19.91
2018-04-14T09:43:16.152Z,20.07
2018-04-14T09:44:16.503Z,19.95
2018-04-14T09:45:16.543Z,20.10
2018-04-14T09:46:16.719Z,20.02
2018-04-14T09:47:16.881Z,20.00
2018-04-14T09:48:17.080Z,20.10
2018-04-14T09:49:17.230Z,20.18
2018-04-14T09:50:17.419Z,20.52
2018-04-14T09:51:17.595Z,20.87
2018-04-14T09:52:17.744Z,21.30
2018-04-14T09:53:17.952Z,21.22
2018-04-14T09:54:18.113Z,21.39
2018-04-14T09:55:18.288Z,21.51
2018-04-14T09:56:18.538Z,21.48
2018-04-14T09:57:18.742Z,21.43
2018-04-14T09:58:18.875Z,20.13
2018-04-14T09:59:19.138Z,20.58
2018-04-14T10:00:19.338Z,20.78
2018-04-14T10:01:19.541Z,20.63
2018-04-14T10:02:19.744Z,21.35
2018-04-14T10:03:19.896Z,20.97
2018-04-14T10:04:20.092Z,21.50
2018-04-14T10:05:20.286Z,21.91
2018-04-14T10:06:20.480Z,22.04
2018-04-14T10:07:20.635Z,22.39
2018-04-14T10:08:20.823Z,21.99
2018-04-14T10:09:20.987Z,22.43
2018-04-14T10:10:21.224Z,21.93
2018-04-14T10:11:21.349Z,22.10
2018-04-14T10:12:21.551Z,21.96
2018-04-14T10:13:21.700Z,22.29
2018-04-14T10:14:21.871Z,22.15
2018-04-14T10:15:22.056Z,21.80
2018-04-14T10:16:22.248Z,21.82
2018-04-14T10:17:22.401Z,21.93
2018-04-14T10:18:22.591Z,20.93
2018-04-14T10:19:22.779Z,20.66
2018-04-14T10:20:22.961Z,20.75
2018-04-14T10:21:23.347Z,21.18
2018-04-14T10:22:23.301Z,21.00
2018-04-14T10:23:23.484Z,20.48
2018-04-14T10:24:23.663Z,20.22
2018-04-14T10:25:23.850Z,19.36
2018-04-14T10:26:24.954Z,19.39
2018-04-14T10:27:24.313Z,19.36
2018-04-14T10:28:24.437Z,19.26
2018-04-14T10:29:24.618Z,19.26
2018-04-14T10:30:24.807Z,18.99
2018-04-14T10:31:25.150Z,19.14
2018-04-14T10:32:25.887Z,19.19
2018-04-14T10:33:26.391Z,19.27
2018-04-14T10:34:25.590Z,19.29
2018-04-14T10:35:25.785Z,19.27
2018-04-14T10:36:25.980Z,19.52
2018-04-14T10:37:26.148Z,19.89
2018-04-14T10:38:26.386Z,19.58
2018-04-14T10:39:26.500Z,20.04
2018-04-14T10:40:26.755Z,20.47
2018-04-14T10:41:26.946Z,20.48
2018-04-14T10:42:27.076Z,20.63
2018-04-14T10:43:27.271Z,20.50
2018-04-14T10:44:27.455Z,20.78
2018-04-14T10:45:27.603Z,20.81
2018-04-14T10:46:27.828Z,21.05
2018-04-14T10:47:27.961Z,21.05
2018-04-14T10:48:28.191Z,20.84
2018-04-14T10:49:28.369Z,20.24
2018-04-14T10:50:28.563Z,20.13
2018-04-14T10:51:28.747Z,20.31
2018-04-14T10:52:28.933Z,20.25
2018-04-14T10:53:29.113Z,20.04
2018-04-14T10:54:29.299Z,20.24
2018-04-14T10:55:29.477Z,20.40
2018-04-14T10:56:29.666Z,20.58
2018-04-14T10:57:29.826Z,20.24
2018-04-14T10:58:30.004Z,20.09
2018-04-14T10:59:30.203Z,20.24
2018-04-14T11:00:30.361Z,20.52
2018-04-14T11:01:30.556Z,20.21
2018-04-14T11:02:30.705Z,19.52
2018-04-14T11:03:30.891Z,19.48
2018-04-14T11:04:31.087Z,19.89
2018-04-14T11:05:31.325Z,20.10
2018-04-14T11:06:31.530Z,20.16
2018-04-14T11:07:31.805Z,20.07
2018-04-14T11:08:31.945Z,20.24
2018-04-14T11:09:32.168Z,20.58
2018-04-14T11:10:32.235Z,20.63
2018-04-14T11:11:32.429Z,20.62
2018-04-14T11:12:32.665Z,20.40
2018-04-14T11:13:32.812Z,20.50
2018-04-14T11:14:32.981Z,20.09
2018-04-14T11:15:33.151Z,19.73
2018-04-14T11:16:33.396Z,19.81
2018-04-14T11:17:33.544Z,19.89
2018-04-14T11:18:33.714Z,20.06
2018-04-14T11:19:33.893Z,20.25
2018-04-14T11:20:34.125Z,20.16
2018-04-14T11:21:34.258Z,19.92
2018-04-14T11:22:34.446Z,20.06
2018-04-14T11:23:34.645Z,20.18
2018-04-14T11:24:34.777Z,20.34
2018-04-14T11:25:34.992Z,20.40
2018-04-14T11:26:35.141Z,20.39
2018-04-14T11:27:35.323Z,20.39
2018-04-14T11:28:35.542Z,20.50
2018-04-14T11:29:35.878Z,20.59
2018-04-14T11:30:36.027Z,20.65
2018-04-14T11:31:36.027Z,20.56
2018-04-14T11:32:36.270Z,20.56
2018-04-14T11:33:36.406Z,20.65
2018-04-14T11:34:36.579Z,20.80
2018-04-14T11:35:36.755Z,20.50
2018-04-14T11:36:36.935Z,20.50
2018-04-14T11:37:37.103Z,20.47
2018-04-14T11:38:37.265Z,20.37
2018-04-14T11:39:37.441Z,20.55
2018-04-14T11:40:37.879Z,20.80
2018-04-14T11:41:37.839Z,20.96
2018-04-14T11:42:37.988Z,20.90
2018-04-14T11:43:38.143Z,20.88
2018-04-14T11:44:38.359Z,20.56
2018-04-14T11:45:38.500Z,20.65
2018-04-14T11:46:38.679Z,20.60
2018-04-14T11:47:38.856Z,20.56
2018-04-14T11:48:38.995Z,20.59
2018-04-14T11:49:39.188Z,20.78
2018-04-14T11:50:39.364Z,20.69
2018-04-14T11:51:39.522Z,20.56
2018-04-14T11:52:39.700Z,20.59
2018-04-14T11:53:39.891Z,20.65
2018-04-14T11:54:40.048Z,20.47
2018-04-14T11:55:40.246Z,20.55
2018-04-14T11:56:40.451Z,20.44
2018-04-14T11:57:40.589Z,20.69
2018-04-14T11:58:40.781Z,20.78
2018-04-14T11:59:40.984Z,20.48
2018-04-14T12:00:41.143Z,20.59
2018-04-14T12:01:41.369Z,20.59
2018-04-14T12:02:41.503Z,20.48
2018-04-14T12:03:41.660Z,20.51
2018-04-14T12:04:41.902Z,20.63
2018-04-14T12:05:42.003Z,20.65
2018-04-14T12:06:42.153Z,20.62
2018-04-14T12:07:42.333Z,20.58
2018-04-14T12:08:42.502Z,20.63
2018-04-14T12:09:42.763Z,20.75
2018-04-14T12:10:43.134Z,20.72
2018-04-14T12:11:43.011Z,20.69
2018-04-14T12:12:43.217Z,21.00
2018-04-14T12:14:43.575Z,20.77
2018-04-14T12:15:43.736Z,20.99
2018-04-14T12:16:43.947Z,20.97
2018-04-14T12:17:44.084Z,21.07
2018-04-14T12:18:44.309Z,21.07
2018-04-14T12:19:44.498Z,21.18
2018-04-14T12:20:44.657Z,21.20
2018-04-14T12:21:44.858Z,21.20
2018-04-14T12:22:45.029Z,21.29
2018-04-14T12:23:45.193Z,21.46
2018-04-14T12:24:45.383Z,21.33
2018-04-14T12:25:45.546Z,21.43
2018-04-14T12:26:45.729Z,21.36
2018-04-14T12:27:45.902Z,21.03
2018-04-14T12:28:46.076Z,21.11
2018-04-14T12:29:46.262Z,21.22
2018-04-14T12:30:46.421Z,21.30
2018-04-14T12:31:46.714Z,21.30
2018-04-14T12:32:46.806Z,21.15
2018-04-14T12:33:46.952Z,21.00
2018-04-14T12:34:47.172Z,21.18
2018-04-14T12:35:47.319Z,21.21
2018-04-14T12:36:47.519Z,21.30
2018-04-14T12:37:47.658Z,21.33
2018-04-14T12:38:47.821Z,21.00
2018-04-14T12:39:47.992Z,21.07
2018-04-14T12:40:48.168Z,20.92
2018-04-14T12:41:48.392Z,20.96
2018-04-14T12:42:48.544Z,20.99
2018-04-14T12:43:48.752Z,21.07
2018-04-14T12:44:48.940Z,20.75
2018-04-14T12:45:49.200Z,20.84
2018-04-14T12:46:50.538Z,20.75
2018-04-14T12:47:49.602Z,20.82
2018-04-14T12:48:49.736Z,20.93
2018-04-14T12:49:50.502Z,21.05
2018-04-14T12:50:50.071Z,21.02
2018-04-14T12:51:50.221Z,20.84
2018-04-14T12:52:50.403Z,20.87
2018-04-14T12:53:50.591Z,20.69
2018-04-14T12:54:50.796Z,20.74
2018-04-14T12:55:51.018Z,20.56
2018-04-14T12:56:51.157Z,20.60
2018-04-14T12:57:51.377Z,20.81
2018-04-14T12:58:51.592Z,20.80
2018-04-14T12:59:51.693Z,20.51
2018-04-14T13:00:51.877Z,20.67
2018-04-14T13:01:52.058Z,20.75
2018-04-14T13:02:52.287Z,20.81